Time;durP1;ratioP1;P1;durP2;ratioP2;P2;SDS_P1;SDS_P2;PMS_P1;PMS_P2;Temp;Humidity;BMP_temperature;BMP_pressure;BME280_temperature;BME280_humidity;BME280_pressure;Samples;Min_cycle;Max_cycle;Signal;HPM_P1;HPM_P2
2023/12/25 00:00:46;;;;;;;;;;;14.20;67.40;;;12.93;64.32;99323.56;12248018;19;19923;-82
2023/12/25 00:04:48;;;;;;;;;;;14.10;67.30;;;12.93;64.39;99324.41;12252423;19;19915;-83
2023/12/25 00:08:51;;;;;;;;;;;14.10;67.10;;;12.84;64.47;99330.44;12248953;19;19926;-83
2023/12/25 00:12:53;;;;;;;;;;;14.10;67.20;;;12.66;64.46;99318.94;12250158;19;19926;-82
2023/12/25 00:16:54;;;;;;;;;;;14.10;67.10;;;12.80;64.37;99356.09;12249020;19;20351;-82
2023/12/25 00:20:56;;;;;;;;;;;14.10;67.20;;;12.59;64.56;99337.00;12247215;19;19915;-83
2023/12/25 00:24:57;;;;;;;;;;;14.00;66.90;;;12.77;64.40;99372.09;12249585;19;19918;-83
2023/12/25 00:28:58;;;;;;;;;;;14.00;66.80;;;12.77;64.56;99366.00;12248227;19;19922;-82
2023/12/25 00:33:00;;;;;;;;;;;14.00;67.00;;;12.75;64.42;99366.13;12248798;19;19923;-83
2023/12/25 00:37:02;;;;;;;;;;;14.00;67.00;;;12.75;64.38;99391.50;12246667;19;19933;-83
2023/12/25 00:41:03;;;;;;;;;;;14.00;67.00;;;12.73;64.41;99375.09;12247990;19;20330;-83
2023/12/25 00:45:05;;;;;;;;;;;13.90;66.70;;;12.62;64.41;99360.28;12248150;19;19934;-83
2023/12/25 00:49:07;;;;;;;;;;;13.90;66.70;;;12.68;64.42;99362.38;12247573;19;19922;-83
2023/12/25 00:53:09;;;;;;;;;;;13.90;66.80;;;12.69;64.56;99371.91;12247115;19;19927;-82
2023/12/25 00:57:11;;;;;;;;;;;13.90;66.90;;;12.66;64.44;99379.19;12244504;19;19918;-83
2023/12/25 01:01:12;;;;;;;;;;;13.90;66.80;;;12.57;64.51;99379.00;12244698;19;19936;-83
2023/12/25 01:05:14;;;;;;;;;;;13.90;66.90;;;12.64;64.46;99371.47;12245599;19;19978;-81
2023/12/25 01:09:16;;;;;;;;;;;13.90;67.20;;;12.66;64.57;99384.44;12246445;19;20412;-82
2023/12/25 01:13:17;;;;;;;;;;;13.90;67.00;;;12.58;64.61;99362.34;12245346;19;20325;-82
2023/12/25 01:17:19;;;;;;;;;;;13.90;66.90;;;12.43;64.47;99326.19;12244020;19;19919;-83
2023/12/25 01:21:21;;;;;;;;;;;13.90;67.20;;;12.49;64.50;99347.41;12243267;19;20294;-84
2023/12/25 01:25:23;;;;;;;;;;;13.90;67.20;;;12.67;64.51;99386.09;12245541;19;20597;-84
2023/12/25 01:29:24;;;;;;;;;;;13.90;67.40;;;12.64;64.66;99389.81;12244577;19;20370;-84
2023/12/25 01:33:26;;;;;;;;;;;13.90;67.40;;;12.63;64.56;99373.25;12245005;19;19927;-84
2023/12/25 01:37:27;;;;;;;;;;;13.90;67.50;;;12.65;64.44;99391.47;12242829;19;20621;-84
2023/12/25 01:41:29;;;;;;;;;;;13.90;67.20;;;12.68;64.50;99403.47;12243141;19;19928;-84
2023/12/25 01:45:31;;;;;;;;;;;13.90;67.50;;;12.71;64.63;99403.19;12252036;19;19922;-84
2023/12/25 01:49:32;;;;;;;;;;;14.00;67.60;;;12.57;64.63;99357.25;12256336;19;19921;-84
2023/12/25 01:53:34;;;;;;;;;;;14.00;67.50;;;12.68;64.63;99349.28;12256951;19;20330;-84
2023/12/25 01:57:36;;;;;;;;;;;13.90;67.40;;;12.57;64.44;99344.16;12252903;19;20333;-83
2023/12/25 02:01:38;;;;;;;;;;;14.00;67.40;;;12.81;64.60;99389.19;12255844;19;20194;-83
2023/12/25 02:05:39;;;;;;;;;;;14.00;67.10;;;12.78;64.45;99383.38;12255655;19;20257;-83
2023/12/25 02:09:41;;;;;;;;;;;14.00;67.00;;;12.79;64.50;99388.47;12254566;19;19939;-83
2023/12/25 02:13:42;;;;;;;;;;;14.00;66.90;;;12.77;64.43;99392.19;12252048;19;20254;-83
2023/12/25 02:17:45;;;;;;;;;;;14.00;66.90;;;12.80;64.38;99402.44;12251648;19;19903;-83
2023/12/25 02:21:47;;;;;;;;;;;14.00;67.60;;;12.71;64.39;99377.81;12250047;19;19922;-83
2023/12/25 02:25:56;;;;;;;;;;;14.00;66.80;;;12.81;64.39;99398.84;12255879;19;20264;-83
2023/12/25 02:29:58;;;;;;;;;;;14.00;66.80;;;12.74;64.42;99393.28;12255653;19;20475;-83
2023/12/25 02:33:59;;;;;;;;;;;14.00;66.90;;;12.77;64.45;99398.28;12254777;19;19919;-83
2023/12/25 02:38:01;;;;;;;;;;;14.10;67.10;;;12.80;64.43;99407.66;12252854;19;19926;-83
2023/12/25 02:42:03;;;;;;;;;;;14.00;67.20;;;12.82;64.45;99417.03;12254484;19;20338;-83
2023/12/25 02:46:04;;;;;;;;;;;14.00;67.30;;;12.83;64.49;99410.03;12255533;19;19974;-83
2023/12/25 02:50:08;;;;;;;;;;;14.00;67.70;;;12.84;64.56;99402.00;12252024;19;19915;-83
2023/12/25 02:54:09;;;;;;;;;;;14.00;67.50;;;12.87;64.60;99410.56;12255621;19;20350;-83
2023/12/25 02:58:12;;;;;;;;;;;14.10;67.90;;;12.78;64.46;99409.59;12246042;19;19990;-83
2023/12/25 03:02:13;;;;;;;;;;;14.20;67.90;;;12.84;64.56;99414.28;12253828;19;19915;-83
2023/12/25 03:06:15;;;;;;;;;;;14.10;67.90;;;12.88;64.50;99441.91;12252052;19;19981;-83
2023/12/25 03:10:16;;;;;;;;;;;14.10;67.60;;;12.87;64.58;99419.25;12251996;19;19956;-84
2023/12/25 03:14:18;;;;;;;;;;;14.10;67.60;;;12.87;64.61;99427.13;12252039;19;20342;-83
2023/12/25 03:18:20;;;;;;;;;;;14.10;67.60;;;12.89;64.64;99440.09;12255148;19;20353;-83
2023/12/25 03:22:21;;;;;;;;;;;14.10;67.70;;;12.84;64.69;99415.13;12252075;19;19982;-83
2023/12/25 03:26:23;;;;;;;;;;;14.10;67.70;;;12.78;64.61;99423.50;12251894;19;19922;-84
2023/12/25 03:30:25;;;;;;;;;;;14.10;68.00;;;12.88;64.71;99435.81;12248647;19;19922;-84
2023/12/25 03:34:26;;;;;;;;;;;14.10;68.40;;;12.88;64.63;99433.19;12251119;19;19931;-84
2023/12/25 03:38:28;;;;;;;;;;;14.10;68.30;;;12.88;64.65;99443.66;12252329;19;20614;-84
2023/12/25 03:42:29;;;;;;;;;;;14.10;68.50;;;12.76;64.72;99428.03;12248936;19;19923;-84
2023/12/25 03:46:31;;;;;;;;;;;14.10;68.50;;;12.67;64.65;99410.50;12249929;19;19918;-84
2023/12/25 03:50:32;;;;;;;;;;;14.10;68.80;;;12.75;64.68;99425.56;12247189;19;19915;-84
2023/12/25 03:54:34;;;;;;;;;;;14.10;68.20;;;12.75;64.83;99441.28;12248806;19;20903;-84
2023/12/25 03:58:36;;;;;;;;;;;14.10;68.00;;;12.75;64.69;99436.88;12250646;19;20046;-83
2023/12/25 04:02:38;;;;;;;;;;;14.00;67.70;;;12.68;64.80;99425.25;12249185;19;19919;-84
2023/12/25 04:06:40;;;;;;;;;;;14.00;67.50;;;12.58;64.86;99425.22;12248317;19;19915;-84
2023/12/25 04:10:41;;;;;;;;;;;14.00;67.50;;;12.64;64.76;99423.84;12247032;19;19911;-84
2023/12/25 04:14:43;;;;;;;;;;;13.90;67.60;;;12.67;64.86;99426.22;12247344;19;20341;-84
2023/12/25 04:18:45;;;;;;;;;;;13.90;67.40;;;12.62;64.75;99423.16;12248455;19;19918;-84
2023/12/25 04:22:48;;;;;;;;;;;13.90;67.50;;;12.61;64.71;99439.84;12249244;19;19911;-84
2023/12/25 04:26:50;;;;;;;;;;;13.90;67.40;;;12.57;64.69;99423.53;12250160;19;20320;-83
2023/12/25 04:30:52;;;;;;;;;;;13.90;67.60;;;12.66;64.82;99434.19;12247044;19;20371;-84
2023/12/25 04:34:53;;;;;;;;;;;13.90;67.80;;;12.64;64.91;99426.47;12249006;19;19917;-83
2023/12/25 04:38:55;;;;;;;;;;;13.90;67.80;;;12.61;64.84;99416.25;12248005;19;19915;-84
2023/12/25 04:42:57;;;;;;;;;;;13.90;67.90;;;12.69;64.77;99421.69;12248243;19;19939;-83
2023/12/25 04:46:58;;;;;;;;;;;13.90;68.10;;;12.69;64.71;99441.78;12248829;19;19918;-83
2023/12/25 04:50:59;;;;;;;;;;;13.90;67.80;;;12.66;64.96;99415.84;12245075;19;19919;-84
2023/12/25 04:55:01;;;;;;;;;;;13.90;67.80;;;12.69;64.70;99426.91;12246987;19;19990;-83
2023/12/25 04:59:03;;;;;;;;;;;14.00;68.00;;;12.77;64.73;99419.25;12247891;19;19963;-83
2023/12/25 05:03:05;;;;;;;;;;;14.00;67.90;;;12.80;64.80;99418.97;12248233;19;19950;-84
2023/12/25 05:07:06;;;;;;;;;;;14.00;67.90;;;12.83;64.70;99420.50;12246840;19;19944;-84
2023/12/25 05:11:08;;;;;;;;;;;14.00;68.00;;;12.83;64.70;99434.41;12244442;19;19915;-84
2023/12/25 05:15:10;;;;;;;;;;;14.00;68.00;;;12.79;64.91;99421.72;12245025;19;19975;-83
2023/12/25 05:19:12;;;;;;;;;;;14.10;67.70;;;12.81;64.78;99407.53;12242115;19;19914;-83
2023/12/25 05:23:14;;;;;;;;;;;14.10;67.60;;;12.83;64.84;99429.19;12246231;19;19932;-83
2023/12/25 05:27:15;;;;;;;;;;;14.10;67.50;;;12.88;64.79;99436.66;12244039;19;19919;-83
2023/12/25 05:31:17;;;;;;;;;;;14.10;67.50;;;12.98;64.72;99450.59;12243496;19;20276;-83
2023/12/25 05:35:19;;;;;;;;;;;14.20;67.70;;;12.98;64.74;99432.25;12243621;19;19925;-84
2023/12/25 05:39:20;;;;;;;;;;;14.20;67.30;;;12.93;64.64;99418.72;12244596;19;20334;-84
2023/12/25 05:43:22;;;;;;;;;;;14.20;67.20;;;13.05;64.70;99437.81;12245102;19;20360;-84
2023/12/25 05:47:24;;;;;;;;;;;14.30;67.30;;;13.01;64.70;99436.41;12246935;19;19911;-84
2023/12/25 05:51:25;;;;;;;;;;;14.30;67.30;;;13.07;64.63;99441.97;12238720;19;19929;-84
2023/12/25 05:55:27;;;;;;;;;;;14.30;67.30;;;13.04;64.60;99429.13;12243436;19;19922;-83
2023/12/25 05:59:28;;;;;;;;;;;14.30;67.30;;;13.08;64.74;99429.69;12241682;19;19926;-84
2023/12/25 06:03:30;;;;;;;;;;;14.30;67.30;;;13.03;64.74;99434.50;12244162;19;19923;-83
2023/12/25 06:07:32;;;;;;;;;;;14.30;67.10;;;13.09;64.72;99439.19;12242837;19;20342;-83
2023/12/25 06:11:35;;;;;;;;;;;14.30;67.00;;;13.09;64.65;99430.50;12240559;19;19919;-84
2023/12/25 06:15:37;;;;;;;;;;;14.30;66.90;;;13.04;64.69;99429.13;12241896;19;20281;-83
2023/12/25 06:19:38;;;;;;;;;;;14.30;66.80;;;13.07;64.66;99441.97;12243026;19;19940;-83
2023/12/25 06:23:40;;;;;;;;;;;14.30;66.70;;;13.08;64.67;99442.78;12243304;19;19957;-83
2023/12/25 06:27:42;;;;;;;;;;;14.30;66.30;;;13.00;64.63;99432.16;12241442;19;19953;-82
2023/12/25 06:31:47;;;;;;;;;;;14.40;66.30;;;13.05;64.84;99443.06;12248101;19;19939;-83
2023/12/25 06:35:49;;;;;;;;;;;14.40;66.20;;;12.96;64.73;99423.72;12253189;19;19947;-83
2023/12/25 06:39:50;;;;;;;;;;;14.40;66.20;;;13.15;64.74;99472.78;12250432;19;19919;-83
2023/12/25 06:43:52;;;;;;;;;;;14.40;66.10;;;13.19;64.69;99460.22;12255864;19;19947;-84
2023/12/25 06:47:54;;;;;;;;;;;14.40;65.80;;;13.21;64.77;99471.41;12251719;19;19933;-84
2023/12/25 06:51:55;;;;;;;;;;;14.50;65.90;;;13.12;64.76;99466.94;12253518;19;19933;-84
2023/12/25 06:55:57;;;;;;;;;;;14.50;65.90;;;13.22;64.76;99483.53;12250588;19;19911;-84
2023/12/25 06:59:59;;;;;;;;;;;14.50;65.30;;;13.18;64.75;99490.84;12252354;19;19922;-87
2023/12/25 07:04:00;;;;;;;;;;;14.50;65.30;;;13.19;64.76;99504.78;12255178;19;19911;-84
2023/12/25 07:08:02;;;;;;;;;;;14.50;64.10;;;12.92;64.69;99458.19;12251987;19;19975;-85
2023/12/25 07:12:04;;;;;;;;;;;14.60;64.90;;;13.29;64.67;99518.81;12251190;19;19989;-83
2023/12/25 07:16:06;;;;;;;;;;;14.60;65.10;;;13.26;64.69;99509.41;12252006;19;19926;-83
2023/12/25 07:20:08;;;;;;;;;;;14.60;64.40;;;13.33;64.64;99525.44;12251951;19;19932;-83
2023/12/25 07:24:09;;;;;;;;;;;14.60;64.80;;;13.20;64.69;99504.63;12253968;19;19927;-84
2023/12/25 07:28:11;;;;;;;;;;;14.60;64.50;;;13.35;64.64;99535.78;12252760;19;20369;-83
2023/12/25 07:32:13;;;;;;;;;;;14.60;64.30;;;13.36;64.72;99550.56;12252547;19;19923;-83
2023/12/25 07:36:14;;;;;;;;;;;14.60;64.30;;;13.25;64.66;99533.91;12248620;19;19918;-83
2023/12/25 07:40:16;;;;;;;;;;;14.60;64.00;;;13.36;64.70;99548.75;12245606;19;19921;-83
2023/12/25 07:44:18;;;;;;;;;;;14.70;64.00;;;13.35;64.66;99548.91;12247974;19;19919;-82
2023/12/25 07:48:19;;;;;;;;;;;14.80;64.20;;;13.35;64.60;99557.59;12250876;19;19919;-85
2023/12/25 07:52:21;;;;;;;;;;;14.70;62.80;;;13.36;64.50;99568.91;12252105;19;19935;-83
2023/12/25 07:56:23;;;;;;;;;;;14.70;63.50;;;13.24;64.55;99553.22;12250589;19;19955;-83
2023/12/25 08:00:24;;;;;;;;;;;14.60;63.50;;;13.36;64.60;99579.41;12249383;19;19939;-83
2023/12/25 08:04:26;;;;;;;;;;;14.70;63.50;;;13.34;64.57;99578.69;12247771;19;19921;-82
2023/12/25 08:08:28;;;;;;;;;;;14.70;63.10;;;13.29;64.55;99594.84;12248283;19;19918;-83
2023/12/25 08:12:30;;;;;;;;;;;14.60;63.20;;;13.34;64.46;99618.00;12243401;19;20364;-83
2023/12/25 08:16:31;;;;;;;;;;;14.70;63.40;;;13.28;64.42;99628.09;12247329;19;20346;-83
2023/12/25 08:20:32;;;;;;;;;;;14.60;63.30;;;13.25;64.46;99649.25;12247168;19;19931;-83
2023/12/25 08:24:35;;;;;;;;;;;14.60;63.10;;;13.31;64.41;99647.94;12246892;19;19927;-83
2023/12/25 08:28:38;;;;;;;;;;;14.60;63.20;;;13.07;64.36;99625.44;12249699;19;19915;-83
2023/12/25 08:32:39;;;;;;;;;;;14.60;63.10;;;13.33;64.34;99660.94;12249484;19;19955;-83
2023/12/25 08:36:40;;;;;;;;;;;14.60;63.10;;;13.26;64.35;99669.34;12247609;19;19933;-83
2023/12/25 08:40:42;;;;;;;;;;;14.60;63.00;;;13.00;64.44;99636.56;12243936;19;19927;-83
2023/12/25 08:44:43;;;;;;;;;;;14.60;63.50;;;13.28;64.40;99675.28;12236658;19;19922;-86
2023/12/25 08:48:44;;;;;;;;;;;14.50;62.60;;;13.26;64.43;99698.16;12241253;19;20303;-85
2023/12/25 08:52:46;;;;;;;;;;;14.50;62.30;;;13.09;64.37;99663.78;12235986;19;19939;-84
2023/12/25 08:56:47;;;;;;;;;;;14.50;62.80;;;13.16;64.34;99689.38;12246535;19;20769;-84
2023/12/25 09:00:49;;;;;;;;;;;14.50;62.90;;;13.21;64.31;99708.16;12246205;19;19974;-83
2023/12/25 09:04:50;;;;;;;;;;;14.50;63.00;;;13.21;64.44;99707.34;12245538;19;20362;-85
2023/12/25 09:08:52;;;;;;;;;;;14.50;63.10;;;13.22;64.37;99707.19;12242486;19;19965;-85
2023/12/25 09:12:54;;;;;;;;;;;14.50;62.70;;;13.25;64.23;99733.16;12248313;19;19915;-84
2023/12/25 09:16:56;;;;;;;;;;;14.50;62.50;;;13.18;64.27;99718.09;12246566;19;19978;-83
2023/12/25 09:20:58;;;;;;;;;;;14.50;62.30;;;13.24;64.34;99741.16;12244798;19;20264;-84
2023/12/25 09:25:00;;;;;;;;;;;14.50;62.00;;;13.23;64.32;99735.09;12246258;19;19911;-84
2023/12/25 09:29:02;;;;;;;;;;;14.50;62.50;;;13.13;64.28;99734.19;12246216;19;19974;-84
2023/12/25 09:33:04;;;;;;;;;;;14.50;61.20;;;13.25;64.31;99750.69;12246932;19;19907;-84
2023/12/25 09:37:06;;;;;;;;;;;14.50;62.30;;;13.24;64.25;99760.34;12244731;19;19922;-84
2023/12/25 09:41:11;;;;;;;;;;;14.50;61.10;;;13.19;64.21;99753.81;12243609;19;19997;-86
2023/12/25 09:45:15;;;;;;;;;;;14.50;62.00;;;13.26;64.20;99758.47;12245279;19;19907;-85
2023/12/25 09:49:17;;;;;;;;;;;14.50;61.80;;;13.16;64.42;99754.06;12238566;19;19943;-84
2023/12/25 09:53:18;;;;;;;;;;;14.50;60.90;;;13.24;64.25;99767.38;12247249;19;19911;-85
2023/12/25 09:57:21;;;;;;;;;;;14.50;61.70;;;13.22;64.05;99769.28;12245912;19;20434;-84
2023/12/25 10:01:23;;;;;;;;;;;14.50;62.00;;;13.28;64.27;99755.72;12243621;19;19936;-85
2023/12/25 10:05:26;;;;;;;;;;;14.50;62.20;;;13.22;64.14;99743.91;12247754;19;19919;-85
2023/12/25 10:09:29;;;;;;;;;;;14.60;62.40;;;13.33;64.22;99769.28;12255909;19;19911;-84
2023/12/25 10:13:31;;;;;;;;;;;14.60;60.70;;;13.28;64.17;99767.06;12259504;19;19926;-84
2023/12/25 10:17:32;;;;;;;;;;;14.60;62.40;;;13.36;64.16;99776.88;12252010;19;19935;-84
2023/12/25 10:21:44;;;;;;;;;;;14.60;62.40;;;13.38;64.17;99787.25;12254556;19;19918;-85
2023/12/25 10:25:45;;;;;;;;;;;14.60;62.30;;;13.33;64.04;99771.06;12256825;19;19930;-83
2023/12/25 10:29:47;;;;;;;;;;;14.70;62.70;;;13.40;64.11;99790.59;12254399;19;19938;-84
2023/12/25 10:34:01;;;;;;;;;;;14.70;61.70;;;13.33;64.07;99786.81;12254507;19;19922;-84
2023/12/25 10:38:06;;;;;;;;;;;14.70;61.40;;;13.37;64.03;99798.72;12253693;19;19927;-84
2023/12/25 10:42:10;;;;;;;;;;;14.70;61.10;;;13.24;64.05;99789.19;12248796;19;19919;-85
2023/12/25 10:46:11;;;;;;;;;;;14.70;60.90;;;13.34;64.11;99806.81;12251751;19;19930;-85
2023/12/25 10:50:13;;;;;;;;;;;14.70;61.30;;;13.39;64.01;99825.63;12241283;19;20366;-84
2023/12/25 10:54:15;;;;;;;;;;;14.70;60.90;;;13.40;64.01;99814.19;12238099;19;19931;-85
2023/12/25 10:58:16;;;;;;;;;;;14.70;61.60;;;13.39;63.90;99826.47;12246310;19;19915;-85
2023/12/25 11:02:18;;;;;;;;;;;14.70;59.80;;;13.36;63.89;99804.91;12244992;19;19923;-84
2023/12/25 11:06:21;;;;;;;;;;;14.70;61.00;;;13.37;63.88;99809.22;12250646;19;19915;-85
2023/12/25 11:10:23;;;;;;;;;;;14.70;61.60;;;13.40;63.94;99816.81;12250184;19;19923;-84
2023/12/25 11:14:25;;;;;;;;;;;14.70;60.60;;;13.41;63.89;99818.47;12256423;19;19923;-85
2023/12/25 11:18:27;;;;;;;;;;;14.70;60.60;;;13.48;64.01;99838.00;12247164;19;20270;-84
2023/12/25 11:22:29;;;;;;;;;;;14.70;60.70;;;13.37;63.90;99822.31;12252253;19;19918;-84
2023/12/25 11:26:31;;;;;;;;;;;14.70;60.10;;;13.51;63.92;99845.63;12252281;19;19927;-84
2023/12/25 11:30:36;;;;;;;;;;;14.80;60.70;;;13.53;63.87;99846.34;12252347;19;19939;-84
2023/12/25 11:34:41;;;;;;;;;;;14.70;61.00;;;13.45;63.95;99825.97;12249202;19;20285;-84
2023/12/25 11:38:54;;;;;;;;;;;14.80;61.00;;;13.47;63.74;99831.09;12250747;19;20355;-84
2023/12/25 11:42:56;;;;;;;;;;;14.80;60.00;;;13.57;63.84;99858.22;12252534;19;19935;-84
2023/12/25 11:46:59;;;;;;;;;;;14.80;60.80;;;13.36;63.77;99823.25;12248779;19;20338;-84
2023/12/25 11:51:17;;;;;;;;;;;14.80;61.00;;;13.54;63.86;99852.41;12246602;19;19927;-84
2023/12/25 11:55:20;;;;;;;;;;;14.80;61.10;;;13.58;63.92;99859.88;12252431;19;19939;-84
2023/12/25 11:59:22;;;;;;;;;;;14.90;60.00;;;13.53;63.81;99853.34;12250862;19;20481;-84
2023/12/25 12:03:23;;;;;;;;;;;14.90;60.20;;;13.42;63.70;99828.84;12250340;19;19919;-85
2023/12/25 12:07:25;;;;;;;;;;;14.90;59.60;;;13.53;63.74;99846.34;12251361;19;19915;-85
2023/12/25 12:11:26;;;;;;;;;;;14.90;60.50;;;13.57;63.76;99863.47;12250163;19;19922;-85
2023/12/25 12:15:28;;;;;;;;;;;14.80;60.40;;;13.52;63.63;99843.81;12250713;19;19914;-85
2023/12/25 12:19:30;;;;;;;;;;;14.90;60.10;;;13.62;63.66;99860.50;12248885;19;19926;-85
2023/12/25 12:23:31;;;;;;;;;;;14.90;59.70;;;13.42;63.79;99843.72;12251814;19;19914;-86
2023/12/25 12:27:33;;;;;;;;;;;14.90;60.00;;;13.60;63.73;99867.66;12252309;19;19935;-85
2023/12/25 12:31:34;;;;;;;;;;;14.90;59.70;;;13.60;63.72;99857.97;12248032;19;20325;-84
2023/12/25 12:35:36;;;;;;;;;;;14.90;60.60;;;13.64;63.69;99869.91;12249074;19;19910;-84
2023/12/25 12:39:38;;;;;;;;;;;14.90;60.10;;;13.53;63.67;99855.97;12248959;19;19926;-88
2023/12/25 12:43:41;;;;;;;;;;;15.00;60.60;;;13.66;63.59;99877.63;12252586;19;19915;-85
2023/12/25 12:47:42;;;;;;;;;;;15.00;60.20;;;13.64;63.65;99887.44;12250766;19;20257;-84
2023/12/25 12:51:43;;;;;;;;;;;15.00;60.10;;;13.55;63.65;99891.63;12245190;19;19918;-85
2023/12/25 12:55:45;;;;;;;;;;;14.90;60.30;;;13.61;63.54;99909.50;12248893;19;20325;-84
2023/12/25 12:59:47;;;;;;;;;;;14.90;59.90;;;13.59;63.59;99900.91;12250553;19;19992;-85
2023/12/25 13:03:48;;;;;;;;;;;14.90;59.70;;;13.60;63.51;99907.81;12249766;19;20338;-85
2023/12/25 13:07:49;;;;;;;;;;;14.90;60.30;;;13.52;63.47;99912.84;12249788;19;20332;-86
2023/12/25 13:11:51;;;;;;;;;;;14.90;60.10;;;13.53;63.45;99904.03;12242769;19;20004;-86
2023/12/25 13:15:53;;;;;;;;;;;14.80;60.00;;;13.42;63.39;99894.41;12247927;19;19967;-85
2023/12/25 13:19:55;;;;;;;;;;;14.80;59.60;;;13.51;63.51;99924.31;12248543;19;19911;-85
2023/12/25 13:23:57;;;;;;;;;;;14.80;59.70;;;13.52;63.37;99939.09;12248619;19;20014;-85
2023/12/25 13:27:58;;;;;;;;;;;14.80;59.70;;;13.50;63.43;99935.75;12249616;19;19920;-85
2023/12/25 13:32:00;;;;;;;;;;;14.80;60.00;;;13.32;63.36;99903.97;12245395;19;20429;-85
2023/12/25 13:36:02;;;;;;;;;;;14.80;59.10;;;13.50;63.45;99928.72;12245140;19;19918;-86
2023/12/25 13:40:06;;;;;;;;;;;14.80;59.50;;;13.52;63.39;99941.72;12247553;19;19919;-85
2023/12/25 13:44:07;;;;;;;;;;;14.80;59.90;;;13.35;63.37;99932.56;12245622;19;20282;-85
2023/12/25 13:48:09;;;;;;;;;;;14.80;59.70;;;13.47;63.37;99947.34;12246594;19;19907;-85
2023/12/25 13:52:11;;;;;;;;;;;14.80;59.50;;;13.45;63.25;99943.19;12244302;19;19911;-85
2023/12/25 13:56:12;;;;;;;;;;;14.80;59.90;;;13.49;63.28;99955.91;12243374;19;20338;-84
2023/12/25 14:00:14;;;;;;;;;;;14.80;60.00;;;13.41;63.36;99945.19;12245111;19;19911;-85
2023/12/25 14:04:16;;;;;;;;;;;14.80;60.00;;;13.35;63.30;99947.47;12245762;19;19919;-85
2023/12/25 14:08:18;;;;;;;;;;;14.80;60.10;;;13.48;63.24;99959.50;12246568;19;20246;-85
2023/12/25 14:12:19;;;;;;;;;;;14.80;59.50;;;13.50;63.23;99973.31;12242668;19;19935;-84
2023/12/25 14:16:21;;;;;;;;;;;14.70;59.50;;;13.46;63.19;99971.06;12238549;19;19927;-85
2023/12/25 14:20:23;;;;;;;;;;;14.70;59.50;;;13.46;63.28;99976.31;12241029;19;19927;-85
2023/12/25 14:24:28;;;;;;;;;;;14.70;60.40;;;13.32;63.15;99961.66;12246342;19;20357;-86
2023/12/25 14:28:29;;;;;;;;;;;14.70;59.90;;;13.28;63.22;99952.34;12246667;19;19914;-85
2023/12/25 14:32:30;;;;;;;;;;;14.70;59.70;;;13.38;63.13;99973.47;12245976;19;20269;-85
2023/12/25 14:36:32;;;;;;;;;;;14.70;59.60;;;13.49;63.19;99991.78;12246147;19;19999;-86
2023/12/25 14:40:34;;;;;;;;;;;14.70;59.80;;;13.49;63.07;99991.78;12244454;19;19923;-85
2023/12/25 14:44:35;;;;;;;;;;;14.70;59.80;;;13.45;63.03;100001.69;12244573;19;19925;-84
2023/12/25 14:48:37;;;;;;;;;;;14.70;60.10;;;13.42;63.06;99995.84;12243210;19;19918;-84
2023/12/25 14:52:38;;;;;;;;;;;14.60;59.80;;;13.39;62.98;100006.59;12251683;19;19930;-84
2023/12/25 14:56:40;;;;;;;;;;;14.70;60.80;;;13.40;62.93;100037.13;12256696;19;19915;-84
2023/12/25 15:00:41;;;;;;;;;;;14.70;60.20;;;13.40;63.06;100032.69;12257142;19;19986;-84
2023/12/25 15:04:43;;;;;;;;;;;14.60;60.30;;;13.26;63.01;100023.28;12257983;19;19921;-85
2023/12/25 15:08:44;;;;;;;;;;;14.60;60.30;;;13.21;62.99;100019.34;12250087;19;19928;-85
2023/12/25 15:12:46;;;;;;;;;;;14.60;60.20;;;13.16;63.03;100008.34;12251311;19;19925;-85
2023/12/25 15:16:48;;;;;;;;;;;14.60;60.10;;;13.36;63.07;100057.47;12250343;19;19922;-85
2023/12/25 15:20:49;;;;;;;;;;;14.60;60.50;;;13.36;62.88;100054.03;12248364;19;19934;-84
2023/12/25 15:24:51;;;;;;;;;;;14.60;59.90;;;13.28;62.93;100033.66;12249871;19;19923;-85
2023/12/25 15:28:53;;;;;;;;;;;14.60;59.90;;;13.13;62.95;100025.16;12252315;19;19918;-84
2023/12/25 15:32:54;;;;;;;;;;;14.60;59.90;;;13.35;63.06;100076.81;12249975;19;20000;-84
2023/12/25 15:36:56;;;;;;;;;;;14.60;59.50;;;13.23;63.01;100056.72;12249199;19;19999;-84
2023/12/25 15:40:58;;;;;;;;;;;14.60;59.90;;;13.27;62.97;100059.03;12247125;19;19926;-85
2023/12/25 15:44:59;;;;;;;;;;;14.60;60.10;;;13.33;62.89;100070.00;12251639;19;19933;-85
2023/12/25 15:49:01;;;;;;;;;;;14.60;60.00;;;13.25;62.91;100065.31;12250764;19;19907;-85
2023/12/25 15:53:05;;;;;;;;;;;14.60;60.30;;;13.30;62.93;100083.34;12249112;19;19914;-85
2023/12/25 15:57:06;;;;;;;;;;;14.50;60.00;;;13.27;62.87;100094.91;12248829;19;19926;-85
2023/12/25 16:01:08;;;;;;;;;;;14.50;60.10;;;13.26;62.78;100095.88;12248468;19;19946;-85
2023/12/25 16:05:09;;;;;;;;;;;14.50;59.80;;;13.16;62.83;100095.69;12248682;19;20631;-85
2023/12/25 16:09:11;;;;;;;;;;;14.50;59.80;;;13.19;62.71;100105.94;12250364;19;19915;-85
2023/12/25 16:13:12;;;;;;;;;;;14.50;59.80;;;13.15;62.77;100103.66;12250214;19;20030;-85
2023/12/25 16:17:16;;;;;;;;;;;14.50;59.70;;;13.15;62.94;100120.25;12243276;19;19926;-85
2023/12/25 16:21:21;;;;;;;;;;;14.40;60.40;;;13.06;62.92;100100.78;12251345;19;20357;-85
2023/12/25 16:25:26;;;;;;;;;;;14.40;59.80;;;13.12;62.85;100119.63;12249417;19;20599;-84
2023/12/25 16:29:28;;;;;;;;;;;14.40;59.60;;;13.07;62.90;100127.88;12251338;19;19907;-84
2023/12/25 16:33:30;;;;;;;;;;;14.30;59.70;;;12.97;62.78;100116.41;12244343;19;19942;-84
2023/12/25 16:37:31;;;;;;;;;;;14.30;59.80;;;13.03;62.88;100127.25;12248869;19;19913;-85
2023/12/25 16:41:33;;;;;;;;;;;14.30;59.70;;;12.99;62.80;100140.72;12248604;19;19939;-84
2023/12/25 16:45:35;;;;;;;;;;;14.30;59.60;;;12.87;62.89;100120.66;12251860;19;19935;-85
2023/12/25 16:49:37;;;;;;;;;;;14.20;59.70;;;13.03;62.76;100155.25;12248217;19;19937;-84
2023/12/25 16:53:38;;;;;;;;;;;14.20;59.70;;;13.01;62.77;100154.53;12251623;19;19957;-85
2023/12/25 16:57:40;;;;;;;;;;;14.20;59.90;;;12.95;62.77;100154.97;12250413;19;19922;-84
2023/12/25 17:01:41;;;;;;;;;;;14.20;59.80;;;13.04;62.76;100156.91;12246441;19;19918;-84
2023/12/25 17:05:44;;;;;;;;;;;14.20;59.90;;;12.86;62.73;100124.22;12250889;19;19940;-84
2023/12/25 17:09:46;;;;;;;;;;;14.20;59.90;;;13.06;62.64;100149.78;12248592;19;19915;-84
2023/12/25 17:13:48;;;;;;;;;;;14.30;60.10;;;13.04;62.76;100170.00;12247919;19;19922;-84
2023/12/25 17:17:50;;;;;;;;;;;14.20;60.00;;;13.03;62.53;100157.88;12246557;19;19911;-85
2023/12/25 17:21:56;;;;;;;;;;;14.20;60.00;;;13.11;62.62;100162.53;12244593;19;19915;-84
2023/12/25 17:25:59;;;;;;;;;;;14.30;60.10;;;13.01;62.63;100151.91;12245905;19;19922;-84
2023/12/25 17:30:03;;;;;;;;;;;14.30;60.00;;;13.11;62.53;100196.63;12248782;19;20262;-85
2023/12/25 17:34:05;;;;;;;;;;;14.30;60.10;;;13.10;62.63;100206.28;12245972;19;19923;-84
2023/12/25 17:38:06;;;;;;;;;;;14.30;60.10;;;13.07;62.54;100217.81;12247560;19;19911;-84
2023/12/25 17:42:08;;;;;;;;;;;14.30;60.10;;;13.07;62.60;100203.88;12245308;19;19923;-85
2023/12/25 17:46:09;;;;;;;;;;;14.30;60.10;;;13.02;62.46;100198.16;12154536;19;20781;-84
2023/12/25 17:50:11;;;;;;;;;;;14.20;60.00;;;12.73;62.47;100174.91;12245361;19;19919;-84
2023/12/25 17:54:12;;;;;;;;;;;14.30;60.10;;;12.92;62.54;100194.53;12250101;19;19944;-84
2023/12/25 17:58:15;;;;;;;;;;;14.20;59.70;;;12.98;62.47;100202.75;12247113;19;19982;-84
2023/12/25 18:02:16;;;;;;;;;;;14.20;60.20;;;12.74;62.46;100144.28;12246068;19;19930;-85
2023/12/25 18:06:18;;;;;;;;;;;14.20;60.30;;;13.05;62.62;100192.69;12250924;19;19936;-84
2023/12/25 18:10:20;;;;;;;;;;;14.20;60.50;;;13.00;62.53;100190.38;12247303;19;19911;-85
2023/12/25 18:14:21;;;;;;;;;;;14.20;60.50;;;12.95;62.41;100184.63;12249525;19;19939;-84